createdAt,value
2019-01-12T00:00:12.429Z,4.00
2019-01-12T00:01:10.586Z,4.00
2019-01-12T00:02:10.587Z,4.00
2019-01-12T00:03:10.570Z,4.00
2019-01-12T00:04:10.557Z,4.00
2019-01-12T00:05:10.551Z,4.00
2019-01-12T00:06:10.542Z,4.00
2019-01-12T00:07:10.576Z,4.00
2019-01-12T00:08:10.533Z,4.00
2019-01-12T00:09:10.517Z,4.00
2019-01-12T00:10:10.509Z,4.00
2019-01-12T00:11:10.499Z,4.00
2019-01-12T00:12:10.544Z,4.00
2019-01-12T00:13:10.487Z,4.00
2019-01-12T00:14:10.481Z,4.00
2019-01-12T00:15:10.464Z,4.00
2019-01-12T00:16:10.455Z,4.00
2019-01-12T00:17:10.445Z,4.00
2019-01-12T00:18:10.435Z,4.00
2019-01-12T00:19:10.431Z,4.00
2019-01-12T00:20:10.422Z,4.00
2019-01-12T00:21:10.411Z,4.00
2019-01-12T00:22:10.413Z,4.00
2019-01-12T00:23:10.394Z,4.00
2019-01-12T00:24:10.390Z,4.00
2019-01-12T00:25:10.374Z,4.00
2019-01-12T00:26:10.383Z,4.00
2019-01-12T00:27:10.362Z,4.00
2019-01-12T00:28:10.349Z,4.00
2019-01-12T00:29:10.345Z,4.00
2019-01-12T00:30:10.334Z,4.00
2019-01-12T00:31:10.802Z,4.00
2019-01-12T00:32:10.315Z,4.00
2019-01-12T00:33:10.306Z,4.00
2019-01-12T00:34:10.294Z,4.00
2019-01-12T00:35:10.288Z,4.00
2019-01-12T00:36:10.277Z,4.00
2019-01-12T00:37:10.275Z,4.00
2019-01-12T00:38:11.932Z,4.00
2019-01-12T00:39:10.257Z,4.00
2019-01-12T00:40:10.248Z,4.00
2019-01-12T00:41:10.246Z,4.00
2019-01-12T00:42:10.228Z,4.00
2019-01-12T00:43:10.220Z,4.00
2019-01-12T00:44:10.215Z,4.00
2019-01-12T00:45:10.202Z,4.00
2019-01-12T00:46:10.193Z,4.00
2019-01-12T00:47:10.194Z,4.00
2019-01-12T00:48:10.179Z,4.00
2019-01-12T00:49:10.172Z,4.00
2019-01-12T00:50:10.162Z,4.00
2019-01-12T00:51:10.160Z,4.00
2019-01-12T00:52:10.144Z,4.00
2019-01-12T00:53:10.137Z,4.00
2019-01-12T00:54:10.128Z,4.00
2019-01-12T00:55:10.119Z,4.00
2019-01-12T00:56:10.108Z,4.00
2019-01-12T00:57:10.104Z,4.00
2019-01-12T00:58:10.094Z,4.00
2019-01-12T00:59:10.089Z,4.00
2019-01-12T01:00:10.077Z,4.00
2019-01-12T01:01:10.071Z,4.00
2019-01-12T01:02:10.061Z,4.00
2019-01-12T01:03:10.055Z,4.00
2019-01-12T01:04:10.046Z,4.00
2019-01-12T01:05:10.033Z,4.00
2019-01-12T01:06:10.026Z,4.00
2019-01-12T01:07:10.016Z,4.00
2019-01-12T01:08:10.011Z,4.00
2019-01-12T01:09:10.001Z,4.00
2019-01-12T01:10:09.993Z,4.00
2019-01-12T01:11:09.984Z,4.00
2019-01-12T01:12:09.977Z,4.00
2019-01-12T01:13:09.968Z,4.00
2019-01-12T01:14:09.960Z,4.00
2019-01-12T01:15:09.952Z,4.00
2019-01-12T01:16:09.941Z,4.00
2019-01-12T01:17:09.933Z,4.00
2019-01-12T01:18:09.926Z,4.00
2019-01-12T01:19:09.914Z,4.00
2019-01-12T01:20:09.908Z,4.00
2019-01-12T01:21:09.898Z,4.00
2019-01-12T01:22:09.890Z,4.00
2019-01-12T01:23:09.885Z,4.00
2019-01-12T01:24:09.875Z,4.00
2019-01-12T01:25:09.883Z,4.00
2019-01-12T01:26:09.861Z,4.00
2019-01-12T01:27:09.851Z,4.00
2019-01-12T01:28:09.841Z,4.00
2019-01-12T01:29:09.832Z,4.00
2019-01-12T01:30:09.825Z,4.00
2019-01-12T01:31:11.439Z,4.00
2019-01-12T01:32:09.805Z,4.00
2019-01-12T01:33:09.795Z,4.00
2019-01-12T01:34:09.790Z,4.00
2019-01-12T01:35:09.780Z,4.00
2019-01-12T01:36:09.772Z,4.00
2019-01-12T01:37:09.765Z,4.00
2019-01-12T01:38:09.756Z,4.00
2019-01-12T01:39:09.747Z,4.00
2019-01-12T01:40:09.744Z,4.00
2019-01-12T01:41:09.731Z,4.00
2019-01-12T01:42:09.724Z,4.00
2019-01-12T01:43:09.718Z,4.00
2019-01-12T01:44:09.707Z,4.00
2019-01-12T01:45:09.695Z,4.00
2019-01-12T01:46:09.686Z,4.00
2019-01-12T01:47:09.676Z,4.00
2019-01-12T01:48:09.675Z,4.00
2019-01-12T01:49:09.665Z,4.00
2019-01-12T01:50:09.655Z,4.00
2019-01-12T01:51:09.646Z,4.00
2019-01-12T01:52:09.638Z,4.00
2019-01-12T01:53:09.630Z,4.00
2019-01-12T01:54:11.440Z,4.00
2019-01-12T01:55:09.614Z,4.00
2019-01-12T01:56:09.606Z,4.00
2019-01-12T01:57:09.644Z,4.00
2019-01-12T01:58:09.589Z,4.00
2019-01-12T01:59:09.583Z,4.00
2019-01-12T02:00:09.572Z,4.00
2019-01-12T02:01:09.563Z,4.00
2019-01-12T02:02:09.554Z,4.00
2019-01-12T02:03:09.963Z,4.00
2019-01-12T02:04:09.534Z,4.00
2019-01-12T02:05:09.531Z,4.00
2019-01-12T02:06:09.521Z,4.00
2019-01-12T02:07:09.513Z,4.00
2019-01-12T02:08:09.506Z,4.00
2019-01-12T02:09:09.498Z,4.00
2019-01-12T02:10:09.490Z,4.00
2019-01-12T02:11:09.482Z,4.00
2019-01-12T02:12:09.475Z,4.00
2019-01-12T02:13:09.467Z,4.00
2019-01-12T02:14:09.456Z,4.00
2019-01-12T02:15:09.445Z,4.00
2019-01-12T02:16:09.440Z,4.00
2019-01-12T02:17:09.435Z,4.00
2019-01-12T02:18:09.430Z,4.00
2019-01-12T02:19:09.413Z,4.00
2019-01-12T02:20:09.410Z,4.00
2019-01-12T02:21:09.398Z,4.00
2019-01-12T02:22:09.391Z,4.00
2019-01-12T02:23:09.388Z,4.00
2019-01-12T02:24:09.372Z,4.00
2019-01-12T02:25:09.369Z,4.00
2019-01-12T02:26:09.356Z,4.00
2019-01-12T02:27:09.346Z,4.00
2019-01-12T02:28:09.338Z,4.00
2019-01-12T02:29:09.332Z,4.00
2019-01-12T02:30:09.323Z,4.00
2019-01-12T02:31:09.317Z,4.00
2019-01-12T02:32:09.308Z,4.00
2019-01-12T02:33:09.294Z,4.00
2019-01-12T02:34:09.289Z,4.00
2019-01-12T02:35:09.283Z,4.00
2019-01-12T02:36:09.275Z,4.00
2019-01-12T02:37:09.269Z,4.00
2019-01-12T02:38:09.255Z,4.00
2019-01-12T02:39:09.249Z,4.00
2019-01-12T02:40:09.238Z,4.00
2019-01-12T02:41:09.237Z,4.00
2019-01-12T02:42:09.225Z,4.00
2019-01-12T02:43:09.214Z,4.00
2019-01-12T02:44:09.204Z,4.00
2019-01-12T02:45:09.195Z,4.00
2019-01-12T02:46:09.189Z,4.00
2019-01-12T02:47:09.187Z,4.00
2019-01-12T02:48:09.177Z,4.00
2019-01-12T02:49:09.165Z,4.00
2019-01-12T02:50:09.154Z,4.00
2019-01-12T02:51:09.150Z,4.00
2019-01-12T02:52:09.141Z,4.00
2019-01-12T02:53:09.138Z,4.00
2019-01-12T02:54:09.126Z,4.00
2019-01-12T02:55:09.290Z,4.00
2019-01-12T02:56:09.108Z,4.00
2019-01-12T02:57:09.100Z,4.00
2019-01-12T02:58:09.095Z,4.00
2019-01-12T02:59:09.080Z,4.00
2019-01-12T03:00:09.076Z,4.00
2019-01-12T03:01:09.109Z,4.00
2019-01-12T03:02:09.058Z,4.00
2019-01-12T03:03:09.051Z,4.00
2019-01-12T03:04:09.043Z,4.00
2019-01-12T03:05:09.038Z,4.00
2019-01-12T03:06:09.033Z,4.00
2019-01-12T03:07:09.017Z,4.00
2019-01-12T03:08:09.018Z,4.00
2019-01-12T03:09:09.005Z,4.00
2019-01-12T03:10:08.995Z,4.00
2019-01-12T03:11:08.991Z,4.00
2019-01-12T03:12:08.977Z,4.00
2019-01-12T03:13:08.994Z,4.00
2019-01-12T03:14:08.990Z,4.00
2019-01-12T03:15:08.967Z,4.00
2019-01-12T03:16:08.942Z,4.00
2019-01-12T03:17:08.942Z,4.00
2019-01-12T03:18:08.927Z,4.00
2019-01-12T03:19:08.919Z,4.00
2019-01-12T03:20:08.921Z,4.00
2019-01-12T03:21:08.912Z,4.00
2019-01-12T03:22:08.900Z,4.00
2019-01-12T03:23:08.893Z,4.00
2019-01-12T03:24:08.882Z,4.00
2019-01-12T03:25:17.217Z,4.00
2019-01-12T03:26:08.862Z,4.00
2019-01-12T03:27:08.854Z,4.00
2019-01-12T03:28:08.842Z,4.00
2019-01-12T03:29:08.840Z,4.00
2019-01-12T03:30:08.827Z,4.00
2019-01-12T03:31:08.831Z,4.00
2019-01-12T03:32:08.809Z,4.00
2019-01-12T03:33:08.817Z,4.00
2019-01-12T03:34:08.797Z,4.00
2019-01-12T03:35:09.110Z,4.00
2019-01-12T03:36:08.780Z,4.00
2019-01-12T03:37:08.768Z,4.00
2019-01-12T03:38:08.766Z,4.00
2019-01-12T03:39:08.749Z,4.00
2019-01-12T03:40:08.743Z,4.00
2019-01-12T03:41:08.756Z,4.00
2019-01-12T03:42:08.727Z,4.00
2019-01-12T03:43:08.732Z,4.00
2019-01-12T03:44:08.711Z,4.00
2019-01-12T03:45:08.706Z,4.00
2019-01-12T03:46:08.694Z,4.00
2019-01-12T03:47:08.687Z,4.00
2019-01-12T03:48:08.677Z,4.00
2019-01-12T03:49:08.672Z,4.00
2019-01-12T03:50:08.661Z,4.00
2019-01-12T03:51:08.654Z,4.00
2019-01-12T03:52:08.650Z,4.00
2019-01-12T03:53:08.636Z,4.00
2019-01-12T03:54:08.632Z,4.00
2019-01-12T03:55:08.628Z,4.00
2019-01-12T03:56:08.618Z,4.00
2019-01-12T03:57:08.603Z,4.00
2019-01-12T03:58:08.600Z,4.00
2019-01-12T03:59:08.590Z,4.00
2019-01-12T04:00:08.579Z,4.00
2019-01-12T04:01:08.577Z,4.00
2019-01-12T04:02:08.565Z,4.00
2019-01-12T04:03:08.554Z,4.00
2019-01-12T04:04:08.555Z,4.00
2019-01-12T04:05:10.456Z,4.00
2019-01-12T04:06:09.479Z,4.00
2019-01-12T04:07:08.522Z,4.00
2019-01-12T04:08:08.515Z,4.00
2019-01-12T04:09:08.521Z,4.00
2019-01-12T04:10:08.506Z,4.00
2019-01-12T04:11:08.506Z,4.00
2019-01-12T04:12:08.490Z,4.00
2019-01-12T04:13:08.478Z,4.00
2019-01-12T04:14:08.466Z,4.00
2019-01-12T04:15:08.458Z,4.00
2019-01-12T04:16:08.456Z,4.00
2019-01-12T04:17:08.442Z,4.00
2019-01-12T04:18:35.962Z,4.00
2019-01-12T04:19:08.455Z,4.00
2019-01-12T04:20:08.431Z,4.00
2019-01-12T04:21:08.416Z,4.00
2019-01-12T04:22:08.406Z,4.00
2019-01-12T04:23:08.393Z,4.00
2019-01-12T04:24:08.391Z,4.00
2019-01-12T04:25:08.380Z,4.00
2019-01-12T04:26:08.378Z,4.00
2019-01-12T04:27:08.359Z,4.00
2019-01-12T04:28:08.379Z,4.00
2019-01-12T04:29:08.344Z,4.00
2019-01-12T04:30:08.341Z,4.00
2019-01-12T04:31:08.331Z,4.00
2019-01-12T04:32:08.328Z,4.00
2019-01-12T04:33:08.321Z,4.00
2019-01-12T04:34:08.308Z,4.00
2019-01-12T04:35:08.300Z,4.00
2019-01-12T04:36:08.293Z,4.00
2019-01-12T04:37:08.291Z,4.00
2019-01-12T04:38:08.282Z,4.00
2019-01-12T04:39:08.273Z,4.00
2019-01-12T04:40:08.263Z,4.00
2019-01-12T04:41:08.255Z,4.00
2019-01-12T04:42:08.242Z,4.00
2019-01-12T04:43:08.233Z,4.00
2019-01-12T04:44:08.226Z,4.00
2019-01-12T04:45:08.224Z,4.00
2019-01-12T04:46:08.209Z,4.00
2019-01-12T04:47:08.206Z,4.00
2019-01-12T04:48:08.192Z,4.00
2019-01-12T04:49:08.186Z,4.00
2019-01-12T04:50:08.180Z,4.00
2019-01-12T04:51:08.174Z,4.00
2019-01-12T04:52:08.165Z,4.00
2019-01-12T04:53:08.153Z,4.00
2019-01-12T04:54:08.149Z,4.00
2019-01-12T04:55:08.146Z,4.00
2019-01-12T04:56:08.132Z,4.00
2019-01-12T04:57:08.123Z,4.00
2019-01-12T04:58:08.113Z,4.00
2019-01-12T04:59:08.103Z,4.00
2019-01-12T05:00:08.099Z,4.00
2019-01-12T05:01:08.090Z,4.00
2019-01-12T05:02:08.078Z,4.00
2019-01-12T05:03:08.073Z,4.00
2019-01-12T05:04:08.063Z,4.00
2019-01-12T05:05:08.059Z,4.00
2019-01-12T05:06:08.054Z,4.00
2019-01-12T05:07:08.261Z,4.00
2019-01-12T05:08:08.032Z,4.00
2019-01-12T05:09:08.026Z,4.00
2019-01-12T05:10:08.054Z,4.00
2019-01-12T05:11:08.008Z,4.00
2019-01-12T05:12:08.003Z,4.00
2019-01-12T05:13:07.993Z,4.00
2019-01-12T05:14:07.984Z,4.00
2019-01-12T05:15:07.971Z,4.00
2019-01-12T05:16:07.968Z,4.00
2019-01-12T05:17:07.963Z,4.00
2019-01-12T05:18:07.949Z,4.00
2019-01-12T05:19:07.946Z,4.00
2019-01-12T05:20:07.935Z,4.00
2019-01-12T05:21:07.928Z,4.00
2019-01-12T05:22:07.921Z,4.00
2019-01-12T05:23:07.909Z,4.00
2019-01-12T05:24:07.908Z,8.00
2019-01-12T05:25:07.892Z,4.00
2019-01-12T05:26:07.884Z,4.00
2019-01-12T05:27:07.895Z,4.00
2019-01-12T05:28:07.872Z,4.00
2019-01-12T05:29:07.859Z,4.00
2019-01-12T05:30:07.853Z,4.00
2019-01-12T05:31:07.850Z,4.00
2019-01-12T05:32:07.834Z,4.00
2019-01-12T05:33:07.834Z,4.00
2019-01-12T05:34:07.819Z,4.00
2019-01-12T05:35:07.813Z,4.00
2019-01-12T05:36:07.811Z,4.00
2019-01-12T05:37:07.796Z,4.00
2019-01-12T05:38:08.640Z,4.00
2019-01-12T05:39:07.777Z,4.00
2019-01-12T05:40:07.774Z,4.00
2019-01-12T05:41:07.762Z,4.00
2019-01-12T05:42:07.755Z,4.00
2019-01-12T05:43:07.746Z,4.00
2019-01-12T05:44:07.738Z,4.00
2019-01-12T05:45:07.734Z,4.00
2019-01-12T05:46:07.722Z,4.00
2019-01-12T05:47:07.713Z,4.00
2019-01-12T05:48:07.708Z,4.00
2019-01-12T05:49:07.697Z,4.00
2019-01-12T05:50:07.691Z,4.00
2019-01-12T05:51:07.684Z,4.00
2019-01-12T05:52:07.669Z,4.00
2019-01-12T05:53:07.662Z,4.00
2019-01-12T05:54:07.656Z,4.00
2019-01-12T05:55:07.646Z,4.00
2019-01-12T05:56:07.638Z,4.00
2019-01-12T05:57:07.635Z,4.00
2019-01-12T05:58:07.621Z,4.00
2019-01-12T05:59:07.617Z,4.00
2019-01-12T06:00:07.608Z,4.00
2019-01-12T06:01:08.924Z,4.00
2019-01-12T06:02:07.590Z,8.00
2019-01-12T06:03:07.578Z,8.00
2019-01-12T06:04:07.613Z,8.00
2019-01-12T06:05:07.570Z,8.00
2019-01-12T06:06:07.558Z,8.00
2019-01-12T06:07:07.555Z,8.00
2019-01-12T06:08:07.541Z,8.00
2019-01-12T06:09:07.537Z,8.00
2019-01-12T06:10:07.523Z,8.00
2019-01-12T06:11:07.520Z,8.00
2019-01-12T06:12:07.508Z,8.00
2019-01-12T06:13:07.501Z,8.00
2019-01-12T06:14:07.489Z,8.00
2019-01-12T06:15:07.485Z,8.00
2019-01-12T06:16:07.481Z,8.00
2019-01-12T06:17:07.472Z,8.00
2019-01-12T06:18:07.468Z,8.00
2019-01-12T06:19:07.453Z,8.00
2019-01-12T06:20:07.444Z,8.00
2019-01-12T06:21:08.970Z,8.00
2019-01-12T06:22:07.428Z,8.00
2019-01-12T06:23:07.423Z,8.00
2019-01-12T06:24:07.411Z,8.00
2019-01-12T06:25:07.405Z,8.00
2019-01-12T06:26:07.389Z,8.00
2019-01-12T06:27:07.392Z,8.00
2019-01-12T06:28:07.379Z,8.00
2019-01-12T06:29:07.374Z,8.00
2019-01-12T06:30:07.359Z,8.00
2019-01-12T06:31:07.352Z,8.00
2019-01-12T06:32:07.355Z,8.00
2019-01-12T06:33:08.967Z,8.00
2019-01-12T06:34:07.338Z,8.00
2019-01-12T06:35:07.325Z,8.00
2019-01-12T06:36:07.313Z,8.00
2019-01-12T06:37:07.302Z,8.00
2019-01-12T06:38:07.296Z,8.00
2019-01-12T06:39:07.419Z,8.00
2019-01-12T06:40:07.280Z,8.00
2019-01-12T06:41:07.276Z,8.00
2019-01-12T06:42:07.266Z,8.00
2019-01-12T06:43:07.255Z,8.00
2019-01-12T06:44:07.246Z,8.00
2019-01-12T06:45:07.238Z,8.00
2019-01-12T06:46:07.243Z,8.00
2019-01-12T06:47:07.220Z,8.00
2019-01-12T06:48:07.212Z,8.00
2019-01-12T06:49:07.203Z,8.00
2019-01-12T06:50:07.205Z,12.00
2019-01-12T06:51:07.188Z,12.00
2019-01-12T06:52:07.181Z,12.00
2019-01-12T06:53:07.176Z,8.00
2019-01-12T06:54:07.159Z,12.00
2019-01-12T06:55:07.157Z,12.00
2019-01-12T06:56:10.837Z,16.00
2019-01-12T06:57:07.137Z,12.00
2019-01-12T06:58:07.129Z,16.00
2019-01-12T06:59:07.120Z,12.00
2019-01-12T07:00:07.112Z,20.00
2019-01-12T07:01:07.099Z,20.00
2019-01-12T07:02:07.095Z,20.00
2019-01-12T07:03:07.085Z,24.00
2019-01-12T07:04:07.080Z,24.00
2019-01-12T07:05:07.070Z,24.00
2019-01-12T07:06:07.069Z,28.00
2019-01-12T07:07:08.971Z,28.00
2019-01-12T07:08:09.010Z,32.00
2019-01-12T07:09:07.039Z,32.00
2019-01-12T07:10:07.802Z,40.00
2019-01-12T07:11:07.017Z,40.00
2019-01-12T07:12:07.020Z,40.00
2019-01-12T07:13:07.004Z,44.00
2019-01-12T07:14:06.992Z,52.00
2019-01-12T07:15:06.989Z,52.00
2019-01-12T07:16:06.980Z,56.00
2019-01-12T07:17:06.972Z,56.00
2019-01-12T07:18:08.947Z,60.00
2019-01-12T07:19:06.952Z,60.00
2019-01-12T07:20:06.945Z,64.00
2019-01-12T07:21:06.939Z,60.00
2019-01-12T07:22:06.928Z,56.00
2019-01-12T07:23:06.919Z,56.00
2019-01-12T07:24:06.911Z,64.00
2019-01-12T07:25:06.908Z,68.00
2019-01-12T07:26:06.902Z,68.00
2019-01-12T07:27:06.892Z,72.00
2019-01-12T07:28:06.877Z,76.00
2019-01-12T07:29:06.873Z,88.00
2019-01-12T07:30:06.861Z,96.00
2019-01-12T07:31:06.852Z,96.00
2019-01-12T07:32:06.845Z,100.00
2019-01-12T07:33:08.472Z,104.00
2019-01-12T07:34:06.827Z,120.00
2019-01-12T07:35:06.820Z,128.00
2019-01-12T07:36:06.835Z,144.00
2019-01-12T07:37:06.805Z,148.00
2019-01-12T07:38:06.805Z,152.00
2019-01-12T07:39:06.802Z,160.00
2019-01-12T07:40:06.780Z,160.00
2019-01-12T07:41:06.780Z,160.00
2019-01-12T07:42:06.767Z,168.00
2019-01-12T07:43:06.775Z,176.00
2019-01-12T07:44:06.748Z,176.00
2019-01-12T07:45:06.759Z,176.00
2019-01-12T07:46:06.724Z,172.00
2019-01-12T07:47:06.718Z,172.00
2019-01-12T07:48:06.716Z,184.00
2019-01-12T07:49:06.708Z,172.00
2019-01-12T07:50:06.698Z,164.00
2019-01-12T07:51:06.688Z,168.00
2019-01-12T07:52:06.682Z,200.00
2019-01-12T07:53:06.673Z,232.00
2019-01-12T07:54:06.672Z,268.00
2019-01-12T07:55:06.656Z,288.00
2019-01-12T07:56:06.647Z,312.00
2019-01-12T07:57:06.638Z,336.00
2019-01-12T07:58:06.642Z,336.00
2019-01-12T07:59:06.622Z,320.00
2019-01-12T08:00:06.617Z,340.00
2019-01-12T08:01:06.606Z,372.00
2019-01-12T08:02:06.600Z,404.00
2019-01-12T08:03:06.588Z,464.00
2019-01-12T08:04:06.581Z,460.00
2019-01-12T08:05:06.937Z,452.00
2019-01-12T08:06:06.569Z,440.00
2019-01-12T08:07:06.554Z,464.00
2019-01-12T08:08:06.555Z,516.00
2019-01-12T08:09:06.546Z,528.00
2019-01-12T08:10:06.533Z,516.00
2019-01-12T08:11:06.545Z,496.00
2019-01-12T08:12:06.512Z,480.00
2019-01-12T08:13:06.506Z,464.00
2019-01-12T08:14:06.498Z,448.00
2019-01-12T08:15:06.488Z,444.00
2019-01-12T08:16:06.481Z,428.00
2019-01-12T08:17:06.472Z,444.00
2019-01-12T08:18:06.465Z,516.00
2019-01-12T08:19:06.457Z,524.00
2019-01-12T08:20:06.449Z,548.00
2019-01-12T08:21:06.444Z,552.00
2019-01-12T08:22:06.434Z,572.00
2019-01-12T08:23:06.424Z,584.00
2019-01-12T08:24:06.418Z,596.00
2019-01-12T08:25:06.407Z,632.00
2019-01-12T08:26:06.400Z,680.00
2019-01-12T08:27:06.392Z,716.00
2019-01-12T08:28:07.981Z,728.00
2019-01-12T08:29:06.376Z,768.00
2019-01-12T08:30:06.367Z,772.00
2019-01-12T08:31:06.356Z,740.00
2019-01-12T08:32:06.346Z,712.00
2019-01-12T08:33:06.352Z,692.00
2019-01-12T08:34:06.331Z,748.00
2019-01-12T08:35:06.328Z,820.00
2019-01-12T08:36:06.316Z,820.00
2019-01-12T08:37:06.310Z,832.00
2019-01-12T08:38:06.324Z,852.00
2019-01-12T08:39:06.316Z,812.00
2019-01-12T08:40:06.290Z,784.00
2019-01-12T08:41:06.280Z,788.00
2019-01-12T08:42:06.946Z,768.00
2019-01-12T08:43:06.261Z,776.00
2019-01-12T08:44:06.255Z,840.00
2019-01-12T08:45:06.246Z,868.00
2019-01-12T08:46:06.239Z,892.00
2019-01-12T08:47:06.230Z,908.00
2019-01-12T08:48:06.221Z,936.00
2019-01-12T08:49:06.212Z,964.00
2019-01-12T08:50:06.208Z,960.00
2019-01-12T08:51:06.242Z,1016.00
2019-01-12T08:52:06.189Z,1060.00
2019-01-12T08:53:06.182Z,1116.00
2019-01-12T08:54:06.175Z,1060.00
2019-01-12T08:55:06.175Z,1080.00
2019-01-12T08:56:06.159Z,1104.00
2019-01-12T08:57:06.152Z,1056.00
2019-01-12T08:58:06.136Z,1092.00
2019-01-12T08:59:06.132Z,1100.00
2019-01-12T09:00:06.127Z,1152.00
2019-01-12T09:01:06.116Z,1140.00
2019-01-12T09:02:06.112Z,1160.00
2019-01-12T09:03:06.098Z,1160.00
2019-01-12T09:04:06.099Z,1140.00
2019-01-12T09:05:06.085Z,1080.00
2019-01-12T09:06:06.081Z,1100.00
2019-01-12T09:07:06.067Z,1144.00
2019-01-12T09:08:06.067Z,1184.00
2019-01-12T09:09:06.057Z,1184.00
2019-01-12T09:10:06.046Z,1160.00
2019-01-12T09:11:06.038Z,1136.00
2019-01-12T09:12:06.025Z,1136.00
2019-01-12T09:13:06.019Z,1192.00
2019-01-12T09:14:06.013Z,1264.00
2019-01-12T09:15:06.002Z,1236.00
2019-01-12T09:16:06.001Z,1236.00
2019-01-12T09:17:05.993Z,1240.00
2019-01-12T09:18:05.983Z,1200.00
2019-01-12T09:19:05.986Z,1260.00
2019-01-12T09:20:05.970Z,1276.00
2019-01-12T09:21:05.959Z,1336.00
2019-01-12T09:22:05.966Z,1444.00
2019-01-12T09:23:05.948Z,1360.00
2019-01-12T09:24:05.931Z,1324.00
2019-01-12T09:25:05.926Z,1208.00
2019-01-12T09:26:05.918Z,1156.00
2019-01-12T09:27:05.910Z,1120.00
2019-01-12T09:28:05.914Z,1196.00
2019-01-12T09:29:05.897Z,1336.00
2019-01-12T09:30:05.890Z,1384.00
2019-01-12T09:31:05.879Z,1536.00
2019-01-12T09:32:05.874Z,1756.00
2019-01-12T09:33:05.861Z,1880.00
2019-01-12T09:34:05.861Z,1956.00
2019-01-12T09:35:05.848Z,1924.00
2019-01-12T09:36:05.843Z,1856.00
2019-01-12T09:37:05.834Z,1860.00
2019-01-12T09:38:05.826Z,1880.00
2019-01-12T09:39:05.819Z,1976.00
2019-01-12T09:40:05.816Z,1904.00
2019-01-12T09:41:05.799Z,1792.00
2019-01-12T09:42:05.805Z,1772.00
2019-01-12T09:43:05.785Z,1700.00
2019-01-12T09:44:05.784Z,1476.00
2019-01-12T09:45:05.772Z,1376.00
2019-01-12T09:46:05.770Z,1344.00
2019-01-12T09:47:05.758Z,1232.00
2019-01-12T09:48:05.756Z,1192.00
2019-01-12T09:49:05.744Z,1172.00
2019-01-12T09:50:07.488Z,1192.00
2019-01-12T09:51:05.729Z,1272.00
2019-01-12T09:52:05.724Z,1300.00
2019-01-12T09:53:05.715Z,1428.00
2019-01-12T09:54:05.706Z,1460.00
2019-01-12T09:55:05.704Z,1500.00
2019-01-12T09:56:05.695Z,1620.00
2019-01-12T09:57:05.686Z,1836.00
2019-01-12T09:58:05.676Z,1812.00
2019-01-12T09:59:05.672Z,1720.00
2019-01-12T10:00:05.662Z,1680.00
2019-01-12T10:01:05.664Z,1720.00
2019-01-12T10:02:05.648Z,1672.00
2019-01-12T10:03:05.642Z,1712.00
2019-01-12T10:04:05.634Z,1632.00
2019-01-12T10:05:05.624Z,1628.00
2019-01-12T10:06:05.631Z,1540.00
2019-01-12T10:07:05.609Z,1372.00
2019-01-12T10:08:05.602Z,1360.00
2019-01-12T10:09:05.611Z,1508.00
2019-01-12T10:10:07.503Z,1380.00
2019-01-12T10:11:05.579Z,1352.00
2019-01-12T10:12:05.576Z,1512.00
2019-01-12T10:13:05.578Z,1712.00
2019-01-12T10:14:06.112Z,1584.00
2019-01-12T10:15:05.575Z,1564.00
2019-01-12T10:16:05.542Z,1452.00
2019-01-12T10:17:05.539Z,1460.00
2019-01-12T10:18:05.525Z,1392.00
2019-01-12T10:19:05.523Z,1524.00
2019-01-12T10:20:05.515Z,1616.00
2019-01-12T10:21:05.534Z,1552.00
2019-01-12T10:22:05.496Z,1596.00
2019-01-12T10:23:05.491Z,1536.00
2019-01-12T10:24:05.546Z,1344.00
2019-01-12T10:25:05.473Z,1312.00
2019-01-12T10:26:05.503Z,1448.00
2019-01-12T10:27:05.463Z,1548.00
2019-01-12T10:28:05.454Z,1348.00
2019-01-12T10:29:05.449Z,1256.00
2019-01-12T10:30:05.440Z,1168.00
2019-01-12T10:31:05.438Z,1184.00
2019-01-12T10:32:05.431Z,1148.00
2019-01-12T10:33:05.415Z,1148.00
2019-01-12T10:34:05.430Z,1192.00
2019-01-12T10:35:05.401Z,1352.00
2019-01-12T10:36:05.393Z,1476.00
2019-01-12T10:37:05.386Z,1524.00
2019-01-12T10:38:05.394Z,1636.00
2019-01-12T10:39:05.376Z,1816.00
2019-01-12T10:40:05.367Z,1704.00
2019-01-12T10:41:05.355Z,1504.00
2019-01-12T10:42:05.349Z,1460.00
2019-01-12T10:43:05.345Z,1360.00
2019-01-12T10:44:05.354Z,1168.00
2019-01-12T10:45:05.329Z,996.00
2019-01-12T10:46:05.320Z,944.00
2019-01-12T10:47:05.314Z,980.00
2019-01-12T10:48:05.307Z,1184.00
2019-01-12T10:49:05.300Z,1308.00
2019-01-12T10:50:05.296Z,1404.00
2019-01-12T10:51:05.287Z,1444.00
2019-01-12T10:52:05.271Z,1436.00
2019-01-12T10:53:06.997Z,1544.00
2019-01-12T10:54:05.263Z,1384.00
2019-01-12T10:55:07.018Z,1256.00
2019-01-12T10:56:05.275Z,1188.00
2019-01-12T10:57:05.758Z,1088.00
2019-01-12T10:58:05.239Z,956.00
2019-01-12T10:59:05.222Z,944.00
2019-01-12T11:00:05.215Z,1188.00
2019-01-12T11:01:05.208Z,1308.00
2019-01-12T11:02:05.204Z,1396.00
2019-01-12T11:03:05.200Z,1404.00
2019-01-12T11:04:05.201Z,1372.00
2019-01-12T11:05:05.189Z,1404.00
2019-01-12T11:06:05.168Z,1440.00
2019-01-12T11:07:05.166Z,1388.00
2019-01-12T11:08:05.164Z,1312.00
2019-01-12T11:09:05.149Z,1276.00
2019-01-12T11:10:05.141Z,1380.00
2019-01-12T11:11:05.137Z,1628.00
2019-01-12T11:12:05.135Z,1832.00
2019-01-12T11:13:05.118Z,1896.00
2019-01-12T11:14:05.116Z,1876.00
2019-01-12T11:15:05.119Z,1908.00
2019-01-12T11:16:05.100Z,1856.00
2019-01-12T11:17:05.094Z,1840.00
2019-01-12T11:18:05.083Z,1860.00
2019-01-12T11:19:05.076Z,1880.00
2019-01-12T11:20:05.071Z,1940.00
2019-01-12T11:21:05.057Z,1944.00
2019-01-12T11:22:05.057Z,2004.00
2019-01-12T11:23:05.054Z,1968.00
2019-01-12T11:24:05.038Z,1868.00
2019-01-12T11:25:05.033Z,1600.00
2019-01-12T11:26:05.054Z,1392.00
2019-01-12T11:27:05.013Z,1324.00
2019-01-12T11:28:05.009Z,1452.00
2019-01-12T11:29:05.002Z,1684.00
2019-01-12T11:30:04.991Z,1888.00
2019-01-12T11:31:04.993Z,1732.00
2019-01-12T11:32:04.977Z,1420.00
2019-01-12T11:33:04.971Z,1500.00
2019-01-12T11:34:04.966Z,1820.00
2019-01-12T11:35:04.957Z,1688.00
2019-01-12T11:36:04.948Z,1896.00
2019-01-12T11:37:04.944Z,1860.00
2019-01-12T11:38:04.945Z,1796.00
2019-01-12T11:39:04.930Z,1780.00
2019-01-12T11:40:04.914Z,1788.00
2019-01-12T11:41:04.919Z,1624.00
2019-01-12T11:42:04.900Z,1504.00
2019-01-12T11:43:04.904Z,1436.00
2019-01-12T11:44:04.893Z,1384.00
2019-01-12T11:45:04.886Z,1192.00
2019-01-12T11:46:05.274Z,904.00
2019-01-12T11:47:04.868Z,748.00
2019-01-12T11:48:04.862Z,676.00
2019-01-12T11:49:04.853Z,732.00
2019-01-12T11:50:04.848Z,892.00
2019-01-12T11:51:04.836Z,976.00
2019-01-12T11:52:04.831Z,984.00
2019-01-12T11:53:04.828Z,892.00
2019-01-12T11:54:04.816Z,864.00
2019-01-12T11:55:04.812Z,992.00
2019-01-12T11:56:04.799Z,1160.00
2019-01-12T11:57:04.800Z,1288.00
2019-01-12T11:58:04.782Z,1184.00
2019-01-12T11:59:04.779Z,1080.00
2019-01-12T12:00:04.777Z,988.00
2019-01-12T12:01:04.989Z,1160.00
2019-01-12T12:02:04.762Z,1308.00
2019-01-12T12:03:04.759Z,1176.00
2019-01-12T12:04:04.741Z,1136.00
2019-01-12T12:05:04.729Z,1264.00
2019-01-12T12:06:04.735Z,1496.00
2019-01-12T12:07:04.728Z,1736.00
2019-01-12T12:08:05.095Z,1892.00
2019-01-12T12:09:04.703Z,1860.00
2019-01-12T12:10:04.692Z,1844.00
2019-01-12T12:11:04.683Z,1844.00
2019-01-12T12:12:04.682Z,1496.00
2019-01-12T12:13:04.694Z,1292.00
2019-01-12T12:14:04.673Z,1260.00
2019-01-12T12:15:04.664Z,1332.00
2019-01-12T12:16:04.663Z,1364.00
2019-01-12T12:17:04.662Z,1420.00
2019-01-12T12:18:04.657Z,1728.00
2019-01-12T12:19:04.631Z,1804.00
2019-01-12T12:20:04.620Z,1716.00
2019-01-12T12:21:04.614Z,1624.00
2019-01-12T12:22:04.609Z,1476.00
2019-01-12T12:23:04.600Z,1612.00
2019-01-12T12:24:04.594Z,1676.00
2019-01-12T12:25:04.584Z,1496.00
2019-01-12T12:26:04.580Z,1400.00
2019-01-12T12:27:05.162Z,1364.00
2019-01-12T12:28:04.563Z,1372.00
2019-01-12T12:29:04.564Z,1436.00
2019-01-12T12:30:04.559Z,1500.00
2019-01-12T12:31:04.569Z,1396.00
2019-01-12T12:32:04.558Z,1296.00
2019-01-12T12:33:04.532Z,1200.00
2019-01-12T12:34:04.518Z,1188.00
2019-01-12T12:35:04.512Z,1132.00
2019-01-12T12:36:04.501Z,1064.00
2019-01-12T12:37:04.500Z,1020.00
2019-01-12T12:38:04.492Z,984.00
2019-01-12T12:39:04.498Z,948.00
2019-01-12T12:40:04.483Z,916.00
2019-01-12T12:41:04.460Z,888.00
2019-01-12T12:42:04.465Z,860.00
2019-01-12T12:43:04.457Z,820.00
2019-01-12T12:44:04.445Z,768.00
2019-01-12T12:45:04.434Z,740.00
2019-01-12T12:46:05.433Z,760.00
2019-01-12T12:47:04.422Z,792.00
2019-01-12T12:48:04.415Z,772.00